x

Shumagin Islands - 85nm South Of Sand Point, Ak (46075) Wave Buoy

4:50 - Tue 28th Jul 2015 All times are UTC.

  • Sig Wave height 5.2ft
  • Peak Period 8s
  • Average Period 6s
  • Wind
    9mph
  • Sea Temp 52°f
  • Ar Temp 51°f
  • Sea Pressure 1014.6mb

More Historic Weather Station data

Upgrade to MSW Pro to gain access to the past 30 days of data for over 8000 Wavebouys and Weather Stations around the globe.

Join Pro

Comparision Forecast

View Surf forecast
   
Ter 07/28 4:50 5ft 8s 6s 9
mph
1014.6mb 52f 51f
3:50 5ft 7s 6s 7 9 mph 1014.5mb 52f 51f
2:50 5ft 7s 6s 9 11 mph 1014.4mb 52f 51f
1:50 5.5ft 8s 6s 9 11 mph 1014.5mb 52f 51f
12:50 5.5ft 8s 6s 13 16 mph 1014.7mb 52f 51f
11:50 5ft 8s 6s 16 20 mph 1015mb 52f 51f
10:50 5ft 8s 5s 16 18 mph 1014.9mb 52f 52f
9:50 5ft 8s 6s 16 20 mph 1014.7mb 52f 52f
8:50 5ft 7s 6s 13 16 mph 1014.7mb 52f 52f
7:50 5ft 7s 6s 13 18 mph 1014.9mb 52f 51f
6:50 5ft 7s 6s 13 18 mph 1014.9mb 52f 51f
5:50 5.5ft 7s 6s 16 18 mph 1014.7mb 52f 51f
4:50 6ft 8s 6s 13 16 mph 1014.9mb 52f 51f
3:50 5.5ft 7s 5s 18 20 mph 1014.9mb 52f 51f
2:50 5.5ft 7s 5s 16 20 mph 1014.9mb 52f 51f
1:50 6ft 8s 5s 18 20 mph 1015.1mb 52f 51f
12:50 6ft 7s 5s 18 22 mph 1015.2mb 52f 51f
Seg 07/27 11:50 5.5ft 7s 5s 20 25 mph 1015.3mb 52f 51f
10:50 5ft 7s 5s 18 22 mph 1015.2mb 52f 51f
9:50 5ft 7s 5s 18 22 mph 1015.3mb 52f 52f
8:50 5ft 7s 5s 16 20 mph 1015.4mb 52f 51f
7:50 5ft 7s 6s 16 20 mph 1015.8mb 52f 51f
6:50 6ft 8s 6s 16 18 mph 1016mb 52f 51f
5:50 6ft 7s 6s 18 20 mph 1016.1mb 52f 51f
4:50 7ft 6s 6s 18 22 mph 1016.2mb 52f 51f
3:50 6.5ft 7s 6s 20 22 mph 1016.4mb 52f 51f
2:50 7ft 8s 6s 22 29 mph 1016.6mb 52f 51f
1:50 8ft 7s 6s 20 25 mph 1016.8mb 52f 51f
12:50 7.5ft 8s 6s 18 20 mph 1016.7mb 52f 51f
11:50 8ft 7s 6s 18 22 mph 1017.1mb 53f 51f
10:50 7ft 8s 6s 13 16 mph 1017.3mb 53f 51f
9:50 6ft 6s 6s 16 18 mph 1017.2mb 53f 52f
8:50 6ft 8s 6s 13 16 mph 1017.1mb 52f 52f
7:50 5.5ft 8s 6s 13 18 mph 1016.8mb 52f 52f
6:50 5.5ft 9s 6s 11 13 mph 1016.6mb 53f 52f
5:50 6ft 7s 6s 13 16 mph 1016.3mb 53f 53f
4:50 6ft 8s 5s 16 18 mph 1016.2mb 52f 52f
3:50 6.5ft 8s 5s 22 27 mph 1015.9mb 53f 53f
2:50 6ft 8s 6s 20 22 mph 1015.8mb 53f 53f
1:50 6ft 8s 6s 18 22 mph 1015.7mb 53f 53f
12:50 6ft 8s 6s 16 20 mph 1015.6mb 53f 53f
Dom 07/26 11:50 6ft 8s 6s 16 18 mph 1015.5mb 53f 53f
10:50 6ft 9s 6s 18 22 mph 1015.4mb 53f 53f
9:50 6ft 9s 6s 13 16 mph 1015.1mb 53f 52f
8:50 5.5ft 9s 6s 16 18 mph 1014.9mb 53f 51f
7:50 6ft 10s 6s 13 18 mph 1015.1mb 52f 51f
6:50 6ft 8s 6s 13 16 mph 1015mb 52f 51f
5:50 6ft 8s 6s 13 16 mph 1015.2mb 52f 50f
4:50 7ft 9s 6s 11 16 mph 1015.2mb 52f 50f
3:50 7.5ft 9s 6s 16 18 mph 1015.2mb 52f 50f
2:50 7ft 8s 6s 16 20 mph 1015.2mb 52f 50f
1:50 8ft 8s 6s 13 18 mph 1015.2mb 52f 51f
12:50 7ft 9s 6s 13 18 mph 1015.4mb 52f 51f
11:50 8ft 9s 7s 11 13 mph 1015.4mb 52f 51f
10:50 8ft 9s 7s 9 11 mph 1015.9mb 52f 52f
9:50 8ft 10s 7s 11 13 mph 1015.9mb 52f 52f
8:50 8.5ft 9s 7s 9 11 mph 1015.8mb 52f 52f
7:50 9ft 10s 7s 11 13 mph 1016.1mb 52f 52f
6:50 9ft 10s 7s 11 16 mph 1016.2mb 52f 52f
5:50 9ft 10s 7s 18 20 mph 1016.7mb 52f 53f
4:50 8.5ft 9s 6s 16 20 mph 1016.6mb 52f 53f
3:50 9.5ft 9s 7s 18 22 mph 1016.9mb 52f 53f
2:50 9ft 9s 6s 18 22 mph 1017.1mb 52f 53f
1:50 11ft 10s 7s 20 25 mph 1017.4mb 53f 53f
12:50 10ft 9s 7s 22 25 mph 1017.4mb 53f 53f
Sáb 07/25 11:50 11ft 8s 6s 27 34 mph 1017.2mb 53f 54f
10:50  -   -   -  27 31 mph 1017.1mb 53f 53f
9:50 10ft 8s 6s 27 34 mph 1017mb 53f 53f
8:50 10.5ft 8s 6s 27 31 mph 1017.1mb 53f 53f
7:50 11ft 7s 6s 29 34 mph 1017.4mb 53f 53f
6:50 9.5ft 8s 6s 27 36 mph 1017.6mb 53f 53f
5:50 8ft 9s 6s 27 31 mph 1018.4mb 53f 53f
4:50 8ft 9s 6s 22 27 mph 1019mb 53f 53f
3:50 8ft 10s 7s 18 22 mph 1020mb 53f 53f
2:50 9ft 10s 7s 18 22 mph 1020.6mb 53f 53f
1:50 8.5ft 10s 7s 20 27 mph 1021mb 53f 53f
12:50 8.5ft 10s 7s 18 25 mph 1021mb 53f 53f
11:50 8ft 9s 6s 18 22 mph 1021.1mb 53f 53f
10:50 7ft 8s 6s 20 25 mph 1021.2mb 53f 53f
9:50 6ft 9s 6s 16 18 mph 1021.2mb 53f 53f
8:50 6ft 8s 6s 11 13 mph 1020.8mb 53f 53f
7:50 5.5ft 8s 6s 18 20 mph 1020.9mb 53f 53f
6:50 5.5ft 8s 6s 16 18 mph 1020.1mb 53f 54f
5:50 5ft 9s 6s 16 18 mph 1019.1mb 53f 53f
4:50 5.5ft 9s 6s 13 16 mph 1018.3mb 53f 54f
3:50 5.5ft 9s 6s 9 11 mph 1017.4mb 53f 53f
2:50 6ft 9s 6s 16 20 mph 1016.7mb 53f 52f
1:50 5.5ft 8s 6s 18 20 mph 1015.9mb 53f 53f
12:50 6ft 9s 6s 18 20 mph 1015mb 53f 53f
Sex 07/24 11:50 7ft 8s 6s 13 18 mph 1014.2mb 53f 53f
10:50 7ft 9s 6s 9 11 mph 1013.4mb 53f 53f
9:50 7.5ft 9s 7s 9 11 mph 1013.3mb 53f 53f
8:50 7ft 8s 6s 11 13 mph 1013.5mb 53f 52f
7:50 7ft 8s 6s 11 13 mph 1013.7mb 53f 52f
6:50 7ft 9s 6s 16 18 mph 1014.4mb 53f 52f